sensor_id;sensor_type;location;lat;lon;timestamp;temperature;humidity
78793;SHT31;68134;51.984;5.652;2023-09-12T00:00:15;23.6;70.2
78793;SHT31;68134;51.984;5.652;2023-09-12T00:02:44;23.5;70.1
78793;SHT31;68134;51.984;5.652;2023-09-12T00:05:12;23.5;69.7
78793;SHT31;68134;51.984;5.652;2023-09-12T00:07:41;23.5;70.5
78793;SHT31;68134;51.984;5.652;2023-09-12T00:10:12;23.4;70.9
78793;SHT31;68134;51.984;5.652;2023-09-12T00:12:41;23.4;69.9
78793;SHT31;68134;51.984;5.652;2023-09-12T00:15:10;23.3;69.8
78793;SHT31;68134;51.984;5.652;2023-09-12T00:17:39;23.3;70.5
78793;SHT31;68134;51.984;5.652;2023-09-12T00:20:08;23.2;70.0
78793;SHT31;68134;51.984;5.652;2023-09-12T00:22:37;23.2;70.2
78793;SHT31;68134;51.984;5.652;2023-09-12T00:25:09;23.1;70.6
78793;SHT31;68134;51.984;5.652;2023-09-12T00:27:39;23.1;70.5
78793;SHT31;68134;51.984;5.652;2023-09-12T00:30:11;23.0;70.7
78793;SHT31;68134;51.984;5.652;2023-09-12T00:32:40;23.0;70.8
78793;SHT31;68134;51.984;5.652;2023-09-12T00:35:09;23.0;70.7
78793;SHT31;68134;51.984;5.652;2023-09-12T00:37:38;22.9;70.4
78793;SHT31;68134;51.984;5.652;2023-09-12T00:40:07;22.9;71.1
78793;SHT31;68134;51.984;5.652;2023-09-12T00:42:36;22.9;71.5
78793;SHT31;68134;51.984;5.652;2023-09-12T00:45:05;22.8;71.6
78793;SHT31;68134;51.984;5.652;2023-09-12T00:47:35;22.8;72.2
78793;SHT31;68134;51.984;5.652;2023-09-12T00:50:05;22.8;72.0
78793;SHT31;68134;51.984;5.652;2023-09-12T00:52:35;22.8;72.2
78793;SHT31;68134;51.984;5.652;2023-09-12T00:55:05;22.8;72.9
78793;SHT31;68134;51.984;5.652;2023-09-12T00:57:35;22.8;72.7
78793;SHT31;68134;51.984;5.652;2023-09-12T01:00:05;22.8;73.0
78793;SHT31;68134;51.984;5.652;2023-09-12T01:02:38;22.8;73.0
78793;SHT31;68134;51.984;5.652;2023-09-12T01:05:08;22.7;72.9
78793;SHT31;68134;51.984;5.652;2023-09-12T01:07:38;22.7;73.1
78793;SHT31;68134;51.984;5.652;2023-09-12T01:10:08;22.7;73.1
78793;SHT31;68134;51.984;5.652;2023-09-12T01:12:37;22.6;73.3
78793;SHT31;68134;51.984;5.652;2023-09-12T01:15:07;22.6;73.5
78793;SHT31;68134;51.984;5.652;2023-09-12T01:17:40;22.6;73.7
78793;SHT31;68134;51.984;5.652;2023-09-12T01:20:14;22.5;74.2
78793;SHT31;68134;51.984;5.652;2023-09-12T01:22:58;22.5;73.8
78793;SHT31;68134;51.984;5.652;2023-09-12T01:26:21;22.5;73.7
78793;SHT31;68134;51.984;5.652;2023-09-12T01:28:55;22.5;73.4
78793;SHT31;68134;51.984;5.652;2023-09-12T01:31:26;22.5;73.0
78793;SHT31;68134;51.984;5.652;2023-09-12T01:34:10;22.5;73.0
78793;SHT31;68134;51.984;5.652;2023-09-12T01:36:39;22.5;72.7
78793;SHT31;68134;51.984;5.652;2023-09-12T01:39:08;22.4;72.3
78793;SHT31;68134;51.984;5.652;2023-09-12T01:41:40;22.4;71.8
78793;SHT31;68134;51.984;5.652;2023-09-12T01:44:12;22.4;72.3
78793;SHT31;68134;51.984;5.652;2023-09-12T01:46:42;22.4;71.9
78793;SHT31;68134;51.984;5.652;2023-09-12T01:49:13;22.4;71.7
78793;SHT31;68134;51.984;5.652;2023-09-12T01:51:43;22.3;71.5
78793;SHT31;68134;51.984;5.652;2023-09-12T01:54:12;22.3;71.7
78793;SHT31;68134;51.984;5.652;2023-09-12T01:56:43;22.3;71.8
78793;SHT31;68134;51.984;5.652;2023-09-12T01:59:12;22.2;71.4
78793;SHT31;68134;51.984;5.652;2023-09-12T02:01:41;22.2;71.7
78793;SHT31;68134;51.984;5.652;2023-09-12T02:04:09;22.1;71.3
78793;SHT31;68134;51.984;5.652;2023-09-12T02:06:38;22.1;71.8
78793;SHT31;68134;51.984;5.652;2023-09-12T02:09:07;22.1;72.3
78793;SHT31;68134;51.984;5.652;2023-09-12T02:11:36;22.0;72.5
78793;SHT31;68134;51.984;5.652;2023-09-12T02:14:04;22.0;72.8
78793;SHT31;68134;51.984;5.652;2023-09-12T02:16:36;22.0;72.9
78793;SHT31;68134;51.984;5.652;2023-09-12T02:19:06;22.0;73.2
78793;SHT31;68134;51.984;5.652;2023-09-12T02:21:34;22.0;73.2
78793;SHT31;68134;51.984;5.652;2023-09-12T02:24:03;21.9;73.3
78793;SHT31;68134;51.984;5.652;2023-09-12T02:26:32;21.9;73.5
78793;SHT31;68134;51.984;5.652;2023-09-12T02:29:02;21.9;73.4
78793;SHT31;68134;51.984;5.652;2023-09-12T02:31:32;21.9;73.1
78793;SHT31;68134;51.984;5.652;2023-09-12T02:34:01;21.9;73.3
78793;SHT31;68134;51.984;5.652;2023-09-12T02:36:31;21.9;72.9
78793;SHT31;68134;51.984;5.652;2023-09-12T02:39:00;21.9;73.2
78793;SHT31;68134;51.984;5.652;2023-09-12T02:41:29;21.9;73.0
78793;SHT31;68134;51.984;5.652;2023-09-12T02:43:58;21.8;73.1
78793;SHT31;68134;51.984;5.652;2023-09-12T02:46:27;21.8;73.4
78793;SHT31;68134;51.984;5.652;2023-09-12T02:48:55;21.8;73.2
78793;SHT31;68134;51.984;5.652;2023-09-12T02:51:25;21.8;72.8
78793;SHT31;68134;51.984;5.652;2023-09-12T02:53:54;21.8;72.8
78793;SHT31;68134;51.984;5.652;2023-09-12T02:56:22;21.8;72.9
78793;SHT31;68134;51.984;5.652;2023-09-12T02:58:51;21.8;72.1
78793;SHT31;68134;51.984;5.652;2023-09-12T03:01:20;21.7;72.3
78793;SHT31;68134;51.984;5.652;2023-09-12T03:03:49;21.7;72.3
78793;SHT31;68134;51.984;5.652;2023-09-12T03:06:18;21.7;72.0
78793;SHT31;68134;51.984;5.652;2023-09-12T03:08:47;21.6;71.9
78793;SHT31;68134;51.984;5.652;2023-09-12T03:11:18;21.6;71.7
78793;SHT31;68134;51.984;5.652;2023-09-12T03:13:46;21.6;71.6
78793;SHT31;68134;51.984;5.652;2023-09-12T03:16:15;21.5;71.2
78793;SHT31;68134;51.984;5.652;2023-09-12T03:18:46;21.5;71.4
78793;SHT31;68134;51.984;5.652;2023-09-12T03:21:14;21.4;71.7
78793;SHT31;68134;51.984;5.652;2023-09-12T03:23:43;21.4;72.0
78793;SHT31;68134;51.984;5.652;2023-09-12T03:26:12;21.3;72.4
78793;SHT31;68134;51.984;5.652;2023-09-12T03:28:40;21.3;72.2
78793;SHT31;68134;51.984;5.652;2023-09-12T03:31:11;21.3;72.1
78793;SHT31;68134;51.984;5.652;2023-09-12T03:33:41;21.2;72.1
78793;SHT31;68134;51.984;5.652;2023-09-12T03:36:14;21.2;72.2
78793;SHT31;68134;51.984;5.652;2023-09-12T03:38:43;21.2;72.2
78793;SHT31;68134;51.984;5.652;2023-09-12T03:41:12;21.2;72.3
78793;SHT31;68134;51.984;5.652;2023-09-12T03:43:41;21.1;72.6
78793;SHT31;68134;51.984;5.652;2023-09-12T03:46:09;21.1;72.8
78793;SHT31;68134;51.984;5.652;2023-09-12T03:48:38;21.1;73.1
78793;SHT31;68134;51.984;5.652;2023-09-12T03:51:07;21.1;72.9
78793;SHT31;68134;51.984;5.652;2023-09-12T03:53:35;21.0;72.9
78793;SHT31;68134;51.984;5.652;2023-09-12T03:56:04;21.0;72.9
78793;SHT31;68134;51.984;5.652;2023-09-12T03:58:33;21.0;73.6
78793;SHT31;68134;51.984;5.652;2023-09-12T04:01:02;21.0;73.2
78793;SHT31;68134;51.984;5.652;2023-09-12T04:03:30;21.0;73.3
78793;SHT31;68134;51.984;5.652;2023-09-12T04:05:59;21.0;73.4
78793;SHT31;68134;51.984;5.652;2023-09-12T04:08:27;21.0;73.6
78793;SHT31;68134;51.984;5.652;2023-09-12T04:10:56;20.9;73.5
78793;SHT31;68134;51.984;5.652;2023-09-12T04:13:25;20.9;73.8
78793;SHT31;68134;51.984;5.652;2023-09-12T04:15:53;20.9;73.3
78793;SHT31;68134;51.984;5.652;2023-09-12T04:18:22;20.9;73.0
78793;SHT31;68134;51.984;5.652;2023-09-12T04:20:50;20.9;73.1
78793;SHT31;68134;51.984;5.652;2023-09-12T04:23:22;20.9;72.7
78793;SHT31;68134;51.984;5.652;2023-09-12T04:25:50;20.8;72.5
78793;SHT31;68134;51.984;5.652;2023-09-12T04:28:19;20.8;72.5
78793;SHT31;68134;51.984;5.652;2023-09-12T04:30:48;20.8;72.4
78793;SHT31;68134;51.984;5.652;2023-09-12T04:33:18;20.8;72.5
78793;SHT31;68134;51.984;5.652;2023-09-12T04:35:47;20.8;73.1
78793;SHT31;68134;51.984;5.652;2023-09-12T04:38:15;20.8;73.8
78793;SHT31;68134;51.984;5.652;2023-09-12T04:40:55;20.8;73.3
78793;SHT31;68134;51.984;5.652;2023-09-12T04:43:26;20.8;73.2
78793;SHT31;68134;51.984;5.652;2023-09-12T04:45:54;20.8;73.6
78793;SHT31;68134;51.984;5.652;2023-09-12T04:48:23;20.8;73.9
78793;SHT31;68134;51.984;5.652;2023-09-12T04:50:52;20.8;73.6
78793;SHT31;68134;51.984;5.652;2023-09-12T04:53:20;20.8;73.4
78793;SHT31;68134;51.984;5.652;2023-09-12T04:55:51;20.8;73.6
78793;SHT31;68134;51.984;5.652;2023-09-12T04:58:22;20.8;74.1
78793;SHT31;68134;51.984;5.652;2023-09-12T05:00:51;20.8;75.2
78793;SHT31;68134;51.984;5.652;2023-09-12T05:03:21;20.8;75.6
78793;SHT31;68134;51.984;5.652;2023-09-12T05:05:52;20.8;75.4
78793;SHT31;68134;51.984;5.652;2023-09-12T05:08:21;20.8;75.3
78793;SHT31;68134;51.984;5.652;2023-09-12T05:10:50;20.8;75.9
78793;SHT31;68134;51.984;5.652;2023-09-12T05:13:19;20.8;75.2
78793;SHT31;68134;51.984;5.652;2023-09-12T05:15:47;20.8;75.1
78793;SHT31;68134;51.984;5.652;2023-09-12T05:18:18;20.8;74.9
78793;SHT31;68134;51.984;5.652;2023-09-12T05:20:47;20.9;75.3
78793;SHT31;68134;51.984;5.652;2023-09-12T05:23:15;20.9;75.2
78793;SHT31;68134;51.984;5.652;2023-09-12T05:25:46;20.9;75.2
78793;SHT31;68134;51.984;5.652;2023-09-12T05:28:14;20.9;75.2
78793;SHT31;68134;51.984;5.652;2023-09-12T05:30:43;20.9;74.8
78793;SHT31;68134;51.984;5.652;2023-09-12T05:33:12;20.9;75.1
78793;SHT31;68134;51.984;5.652;2023-09-12T05:35:40;20.9;75.2
78793;SHT31;68134;51.984;5.652;2023-09-12T05:38:11;21.0;75.4
78793;SHT31;68134;51.984;5.652;2023-09-12T05:40:39;21.0;75.5
78793;SHT31;68134;51.984;5.652;2023-09-12T05:43:08;21.0;75.8
78793;SHT31;68134;51.984;5.652;2023-09-12T05:45:54;21.0;75.8
78793;SHT31;68134;51.984;5.652;2023-09-12T05:48:31;21.0;76.2
78793;SHT31;68134;51.984;5.652;2023-09-12T05:50:59;21.0;76.3
78793;SHT31;68134;51.984;5.652;2023-09-12T05:53:29;21.1;76.1
78793;SHT31;68134;51.984;5.652;2023-09-12T05:55:57;21.1;76.3
78793;SHT31;68134;51.984;5.652;2023-09-12T05:58:27;21.1;76.2
78793;SHT31;68134;51.984;5.652;2023-09-12T06:00:56;21.2;76.1
78793;SHT31;68134;51.984;5.652;2023-09-12T06:03:27;21.2;76.3
78793;SHT31;68134;51.984;5.652;2023-09-12T06:05:57;21.2;76.3
78793;SHT31;68134;51.984;5.652;2023-09-12T06:08:26;21.2;76.6
78793;SHT31;68134;51.984;5.652;2023-09-12T06:10:54;21.2;76.8
78793;SHT31;68134;51.984;5.652;2023-09-12T06:13:23;21.3;76.8
78793;SHT31;68134;51.984;5.652;2023-09-12T06:15:52;21.3;76.7
78793;SHT31;68134;51.984;5.652;2023-09-12T06:18:20;21.3;76.9
78793;SHT31;68134;51.984;5.652;2023-09-12T06:20:50;21.3;77.0
78793;SHT31;68134;51.984;5.652;2023-09-12T06:23:19;21.3;77.2
78793;SHT31;68134;51.984;5.652;2023-09-12T06:25:47;21.3;77.2
78793;SHT31;68134;51.984;5.652;2023-09-12T06:28:26;21.4;77.5
78793;SHT31;68134;51.984;5.652;2023-09-12T06:30:55;21.4;77.4
78793;SHT31;68134;51.984;5.652;2023-09-12T06:33:24;21.4;77.4
78793;SHT31;68134;51.984;5.652;2023-09-12T06:35:54;21.4;77.6
78793;SHT31;68134;51.984;5.652;2023-09-12T06:38:23;21.4;77.4
78793;SHT31;68134;51.984;5.652;2023-09-12T06:40:52;21.5;77.3
78793;SHT31;68134;51.984;5.652;2023-09-12T06:43:21;21.5;77.1
78793;SHT31;68134;51.984;5.652;2023-09-12T06:45:50;21.5;77.4
78793;SHT31;68134;51.984;5.652;2023-09-12T06:48:19;21.6;77.2
78793;SHT31;68134;51.984;5.652;2023-09-12T06:50:47;21.6;77.0
78793;SHT31;68134;51.984;5.652;2023-09-12T06:53:16;21.6;76.6
78793;SHT31;68134;51.984;5.652;2023-09-12T06:55:45;21.6;76.9
78793;SHT31;68134;51.984;5.652;2023-09-12T06:58:14;21.7;76.5
78793;SHT31;68134;51.984;5.652;2023-09-12T07:00:42;21.7;76.9
78793;SHT31;68134;51.984;5.652;2023-09-12T07:03:11;21.7;77.1
78793;SHT31;68134;51.984;5.652;2023-09-12T07:05:42;21.7;76.9
78793;SHT31;68134;51.984;5.652;2023-09-12T07:08:11;21.8;76.8
78793;SHT31;68134;51.984;5.652;2023-09-12T07:10:43;21.8;77.0
78793;SHT31;68134;51.984;5.652;2023-09-12T07:13:12;21.8;77.3
78793;SHT31;68134;51.984;5.652;2023-09-12T07:15:43;21.8;76.6
78793;SHT31;68134;51.984;5.652;2023-09-12T07:18:12;21.9;76.6
78793;SHT31;68134;51.984;5.652;2023-09-12T07:20:41;21.9;77.0
78793;SHT31;68134;51.984;5.652;2023-09-12T07:23:10;21.9;76.9
78793;SHT31;68134;51.984;5.652;2023-09-12T07:25:40;21.9;76.0
78793;SHT31;68134;51.984;5.652;2023-09-12T07:28:10;22.0;76.3
78793;SHT31;68134;51.984;5.652;2023-09-12T07:30:41;22.0;76.2
78793;SHT31;68134;51.984;5.652;2023-09-12T07:33:09;22.0;76.7
78793;SHT31;68134;51.984;5.652;2023-09-12T07:35:39;22.1;75.9
78793;SHT31;68134;51.984;5.652;2023-09-12T07:38:09;22.1;76.1
78793;SHT31;68134;51.984;5.652;2023-09-12T07:40:40;22.1;75.7
78793;SHT31;68134;51.984;5.652;2023-09-12T07:43:10;22.2;75.3
78793;SHT31;68134;51.984;5.652;2023-09-12T07:45:39;22.2;75.4
78793;SHT31;68134;51.984;5.652;2023-09-12T07:48:09;22.3;76.5
78793;SHT31;68134;51.984;5.652;2023-09-12T07:50:39;22.3;75.9
78793;SHT31;68134;51.984;5.652;2023-09-12T07:53:08;22.4;75.3
78793;SHT31;68134;51.984;5.652;2023-09-12T07:55:38;22.4;74.5
78793;SHT31;68134;51.984;5.652;2023-09-12T07:58:12;22.5;74.5
78793;SHT31;68134;51.984;5.652;2023-09-12T08:00:41;22.5;74.7
78793;SHT31;68134;51.984;5.652;2023-09-12T08:03:10;22.5;76.4
78793;SHT31;68134;51.984;5.652;2023-09-12T08:05:38;22.7;75.7
78793;SHT31;68134;51.984;5.652;2023-09-12T08:08:07;23.0;73.6
78793;SHT31;68134;51.984;5.652;2023-09-12T08:10:36;23.5;73.3
78793;SHT31;68134;51.984;5.652;2023-09-12T08:13:05;24.1;70.4
78793;SHT31;68134;51.984;5.652;2023-09-12T08:15:33;24.8;68.3
78793;SHT31;68134;51.984;5.652;2023-09-12T08:18:02;25.5;67.2
78793;SHT31;68134;51.984;5.652;2023-09-12T08:20:33;26.0;65.3
78793;SHT31;68134;51.984;5.652;2023-09-12T08:23:02;26.5;63.5
78793;SHT31;68134;51.984;5.652;2023-09-12T08:25:30;27.0;61.4
78793;SHT31;68134;51.984;5.652;2023-09-12T08:27:59;27.3;59.9
78793;SHT31;68134;51.984;5.652;2023-09-12T08:30:28;27.4;58.7
78793;SHT31;68134;51.984;5.652;2023-09-12T08:32:57;27.5;58.7
78793;SHT31;68134;51.984;5.652;2023-09-12T08:35:25;27.7;59.4
78793;SHT31;68134;51.984;5.652;2023-09-12T08:37:54;27.8;57.7
78793;SHT31;68134;51.984;5.652;2023-09-12T08:40:23;27.9;58.5
78793;SHT31;68134;51.984;5.652;2023-09-12T08:42:54;28.0;56.0
78793;SHT31;68134;51.984;5.652;2023-09-12T08:45:23;28.2;55.7
78793;SHT31;68134;51.984;5.652;2023-09-12T08:47:54;28.4;55.9
78793;SHT31;68134;51.984;5.652;2023-09-12T08:50:23;28.6;55.4
78793;SHT31;68134;51.984;5.652;2023-09-12T08:52:57;28.9;53.2
78793;SHT31;68134;51.984;5.652;2023-09-12T08:55:25;29.2;54.8
78793;SHT31;68134;51.984;5.652;2023-09-12T08:57:56;29.5;52.6
78793;SHT31;68134;51.984;5.652;2023-09-12T09:00:27;29.9;52.5
78793;SHT31;68134;51.984;5.652;2023-09-12T09:02:57;30.3;50.8
78793;SHT31;68134;51.984;5.652;2023-09-12T09:05:27;30.6;50.3
78793;SHT31;68134;51.984;5.652;2023-09-12T09:07:57;30.9;48.2
78793;SHT31;68134;51.984;5.652;2023-09-12T09:10:26;31.2;46.5
78793;SHT31;68134;51.984;5.652;2023-09-12T09:12:58;31.5;47.0
78793;SHT31;68134;51.984;5.652;2023-09-12T09:15:28;31.8;47.2
78793;SHT31;68134;51.984;5.652;2023-09-12T09:17:58;32.0;46.4
78793;SHT31;68134;51.984;5.652;2023-09-12T09:20:33;32.2;46.4
78793;SHT31;68134;51.984;5.652;2023-09-12T09:23:05;32.4;43.7
78793;SHT31;68134;51.984;5.652;2023-09-12T09:25:39;32.6;46.3
78793;SHT31;68134;51.984;5.652;2023-09-12T09:28:18;32.8;44.3
78793;SHT31;68134;51.984;5.652;2023-09-12T09:30:47;33.0;43.0
78793;SHT31;68134;51.984;5.652;2023-09-12T09:33:17;33.3;42.3
78793;SHT31;68134;51.984;5.652;2023-09-12T09:35:48;33.5;42.6
78793;SHT31;68134;51.984;5.652;2023-09-12T09:38:19;33.7;42.5
78793;SHT31;68134;51.984;5.652;2023-09-12T09:40:49;33.9;40.0
78793;SHT31;68134;51.984;5.652;2023-09-12T09:43:21;34.0;41.5
78793;SHT31;68134;51.984;5.652;2023-09-12T09:45:51;34.1;41.3
78793;SHT31;68134;51.984;5.652;2023-09-12T09:48:21;34.2;41.2
78793;SHT31;68134;51.984;5.652;2023-09-12T09:50:51;34.3;40.2
78793;SHT31;68134;51.984;5.652;2023-09-12T09:53:21;34.5;39.7
78793;SHT31;68134;51.984;5.652;2023-09-12T09:56:09;34.6;39.1
78793;SHT31;68134;51.984;5.652;2023-09-12T09:58:42;34.7;39.4
78793;SHT31;68134;51.984;5.652;2023-09-12T10:01:12;34.7;39.0
78793;SHT31;68134;51.984;5.652;2023-09-12T10:03:42;34.8;40.3
78793;SHT31;68134;51.984;5.652;2023-09-12T10:06:13;34.8;39.2
78793;SHT31;68134;51.984;5.652;2023-09-12T10:08:44;34.9;38.5
78793;SHT31;68134;51.984;5.652;2023-09-12T10:11:15;34.9;39.3
78793;SHT31;68134;51.984;5.652;2023-09-12T10:13:49;34.9;38.7
78793;SHT31;68134;51.984;5.652;2023-09-12T10:16:23;34.9;38.5
78793;SHT31;68134;51.984;5.652;2023-09-12T10:18:58;34.8;38.6
78793;SHT31;68134;51.984;5.652;2023-09-12T10:21:31;34.7;39.3
78793;SHT31;68134;51.984;5.652;2023-09-12T10:24:03;34.6;38.7
78793;SHT31;68134;51.984;5.652;2023-09-12T10:26:34;34.5;40.2
78793;SHT31;68134;51.984;5.652;2023-09-12T10:29:03;34.3;40.1
78793;SHT31;68134;51.984;5.652;2023-09-12T10:31:35;34.3;40.5
78793;SHT31;68134;51.984;5.652;2023-09-12T10:34:04;34.3;40.9
78793;SHT31;68134;51.984;5.652;2023-09-12T10:36:36;34.5;39.7
78793;SHT31;68134;51.984;5.652;2023-09-12T10:39:07;34.6;39.4
78793;SHT31;68134;51.984;5.652;2023-09-12T10:41:39;34.6;39.4
78793;SHT31;68134;51.984;5.652;2023-09-12T10:44:10;34.6;39.5
78793;SHT31;68134;51.984;5.652;2023-09-12T10:46:41;34.7;39.4
78793;SHT31;68134;51.984;5.652;2023-09-12T10:49:12;34.7;38.6
78793;SHT31;68134;51.984;5.652;2023-09-12T10:51:43;34.6;40.7
78793;SHT31;68134;51.984;5.652;2023-09-12T10:54:15;34.6;38.8
78793;SHT31;68134;51.984;5.652;2023-09-12T10:56:44;34.5;39.3
78793;SHT31;68134;51.984;5.652;2023-09-12T10:59:16;34.4;40.5
78793;SHT31;68134;51.984;5.652;2023-09-12T11:01:47;34.2;39.5
78793;SHT31;68134;51.984;5.652;2023-09-12T11:04:32;34.1;39.1
78793;SHT31;68134;51.984;5.652;2023-09-12T11:10:17;33.5;40.6
78793;SHT31;68134;51.984;5.652;2023-09-12T11:12:48;33.4;41.5
78793;SHT31;68134;51.984;5.652;2023-09-12T11:15:18;33.3;42.7
78793;SHT31;68134;51.984;5.652;2023-09-12T11:17:48;33.2;41.7
78793;SHT31;68134;51.984;5.652;2023-09-12T11:20:17;33.1;43.2
78793;SHT31;68134;51.984;5.652;2023-09-12T11:22:47;33.0;42.6
78793;SHT31;68134;51.984;5.652;2023-09-12T11:25:23;32.9;42.4
78793;SHT31;68134;51.984;5.652;2023-09-12T11:28:05;32.8;41.9
78793;SHT31;68134;51.984;5.652;2023-09-12T11:30:34;32.7;44.4
78793;SHT31;68134;51.984;5.652;2023-09-12T11:33:05;32.7;45.1
78793;SHT31;68134;51.984;5.652;2023-09-12T11:35:41;32.7;42.7
78793;SHT31;68134;51.984;5.652;2023-09-12T11:38:11;32.9;43.5
78793;SHT31;68134;51.984;5.652;2023-09-12T11:40:44;33.0;43.8
78793;SHT31;68134;51.984;5.652;2023-09-12T11:43:22;33.2;43.2
78793;SHT31;68134;51.984;5.652;2023-09-12T11:45:51;33.6;42.2
78793;SHT31;68134;51.984;5.652;2023-09-12T11:48:20;33.9;42.3
78793;SHT31;68134;51.984;5.652;2023-09-12T11:50:52;34.5;40.1
78793;SHT31;68134;51.984;5.652;2023-09-12T11:53:23;35.2;40.1
78793;SHT31;68134;51.984;5.652;2023-09-12T11:55:55;35.7;37.6
78793;SHT31;68134;51.984;5.652;2023-09-12T11:58:27;36.1;36.6
78793;SHT31;68134;51.984;5.652;2023-09-12T12:00:57;36.4;35.7
78793;SHT31;68134;51.984;5.652;2023-09-12T12:03:27;36.6;35.2
78793;SHT31;68134;51.984;5.652;2023-09-12T12:05:57;36.7;35.1
78793;SHT31;68134;51.984;5.652;2023-09-12T12:08:26;36.7;35.1
78793;SHT31;68134;51.984;5.652;2023-09-12T12:10:56;36.8;35.5
78793;SHT31;68134;51.984;5.652;2023-09-12T12:13:25;37.0;34.8
78793;SHT31;68134;51.984;5.652;2023-09-12T12:15:55;37.1;33.9
78793;SHT31;68134;51.984;5.652;2023-09-12T12:18:24;37.2;33.1
78793;SHT31;68134;51.984;5.652;2023-09-12T12:20:54;37.2;33.7
78793;SHT31;68134;51.984;5.652;2023-09-12T12:23:23;37.3;33.6
78793;SHT31;68134;51.984;5.652;2023-09-12T12:25:51;37.3;35.1
78793;SHT31;68134;51.984;5.652;2023-09-12T12:28:20;37.3;34.7
78793;SHT31;68134;51.984;5.652;2023-09-12T12:30:53;37.4;35.1
78793;SHT31;68134;51.984;5.652;2023-09-12T12:33:22;37.5;33.6
78793;SHT31;68134;51.984;5.652;2023-09-12T12:36:01;37.5;34.0
78793;SHT31;68134;51.984;5.652;2023-09-12T12:38:33;37.6;34.1
78793;SHT31;68134;51.984;5.652;2023-09-12T12:41:03;37.6;32.5
78793;SHT31;68134;51.984;5.652;2023-09-12T12:43:31;37.5;32.7
78793;SHT31;68134;51.984;5.652;2023-09-12T12:46:00;37.5;33.3
78793;SHT31;68134;51.984;5.652;2023-09-12T12:48:34;37.4;33.6
78793;SHT31;68134;51.984;5.652;2023-09-12T12:51:14;37.3;32.6
78793;SHT31;68134;51.984;5.652;2023-09-12T12:53:47;37.2;33.3
78793;SHT31;68134;51.984;5.652;2023-09-12T12:56:18;37.1;33.9
78793;SHT31;68134;51.984;5.652;2023-09-12T12:58:50;36.9;33.6
78793;SHT31;68134;51.984;5.652;2023-09-12T13:01:19;36.8;32.0
78793;SHT31;68134;51.984;5.652;2023-09-12T13:03:50;36.6;33.7
78793;SHT31;68134;51.984;5.652;2023-09-12T13:06:21;36.5;33.7
78793;SHT31;68134;51.984;5.652;2023-09-12T13:08:49;36.4;33.6
78793;SHT31;68134;51.984;5.652;2023-09-12T13:11:18;36.2;34.9
78793;SHT31;68134;51.984;5.652;2023-09-12T13:13:48;36.1;36.3
78793;SHT31;68134;51.984;5.652;2023-09-12T13:16:17;35.9;36.1
78793;SHT31;68134;51.984;5.652;2023-09-12T13:18:46;35.7;36.3
78793;SHT31;68134;51.984;5.652;2023-09-12T13:21:14;35.4;36.5
78793;SHT31;68134;51.984;5.652;2023-09-12T13:23:43;35.1;36.7
78793;SHT31;68134;51.984;5.652;2023-09-12T13:26:12;34.8;37.6
78793;SHT31;68134;51.984;5.652;2023-09-12T13:28:42;34.5;38.0
78793;SHT31;68134;51.984;5.652;2023-09-12T13:31:11;34.3;38.6
78793;SHT31;68134;51.984;5.652;2023-09-12T13:33:40;34.2;38.4
78793;SHT31;68134;51.984;5.652;2023-09-12T13:36:09;34.2;38.5
78793;SHT31;68134;51.984;5.652;2023-09-12T13:38:37;34.1;39.1
78793;SHT31;68134;51.984;5.652;2023-09-12T13:41:06;34.1;39.7
78793;SHT31;68134;51.984;5.652;2023-09-12T13:43:35;34.0;39.0
78793;SHT31;68134;51.984;5.652;2023-09-12T13:46:03;33.9;39.4
78793;SHT31;68134;51.984;5.652;2023-09-12T13:48:34;33.8;40.6
78793;SHT31;68134;51.984;5.652;2023-09-12T13:51:03;33.8;39.7
78793;SHT31;68134;51.984;5.652;2023-09-12T13:53:31;33.6;38.2
78793;SHT31;68134;51.984;5.652;2023-09-12T13:56:00;33.5;39.4
78793;SHT31;68134;51.984;5.652;2023-09-12T13:58:29;33.4;38.6
78793;SHT31;68134;51.984;5.652;2023-09-12T14:01:01;33.2;38.6
78793;SHT31;68134;51.984;5.652;2023-09-12T14:03:31;33.1;40.5
78793;SHT31;68134;51.984;5.652;2023-09-12T14:05:59;33.1;39.3
78793;SHT31;68134;51.984;5.652;2023-09-12T14:08:28;33.0;39.3
78793;SHT31;68134;51.984;5.652;2023-09-12T14:10:57;33.0;39.0
78793;SHT31;68134;51.984;5.652;2023-09-12T14:13:25;32.9;38.5
78793;SHT31;68134;51.984;5.652;2023-09-12T14:15:54;32.8;38.5
78793;SHT31;68134;51.984;5.652;2023-09-12T14:18:24;32.8;38.4
78793;SHT31;68134;51.984;5.652;2023-09-12T14:20:53;32.7;39.3
78793;SHT31;68134;51.984;5.652;2023-09-12T14:23:21;32.7;39.3
78793;SHT31;68134;51.984;5.652;2023-09-12T14:25:50;32.7;38.6
78793;SHT31;68134;51.984;5.652;2023-09-12T14:30:44;32.7;39.2
78793;SHT31;68134;51.984;5.652;2023-09-12T14:33:15;32.7;40.8
78793;SHT31;68134;51.984;5.652;2023-09-12T14:35:46;32.7;41.0
78793;SHT31;68134;51.984;5.652;2023-09-12T14:38:15;32.6;41.3
78793;SHT31;68134;51.984;5.652;2023-09-12T14:40:44;32.5;42.0
78793;SHT31;68134;51.984;5.652;2023-09-12T14:43:13;32.3;42.5
78793;SHT31;68134;51.984;5.652;2023-09-12T14:45:42;32.1;42.5
78793;SHT31;68134;51.984;5.652;2023-09-12T14:48:10;32.0;42.6
78793;SHT31;68134;51.984;5.652;2023-09-12T14:50:39;31.9;42.6
78793;SHT31;68134;51.984;5.652;2023-09-12T14:53:08;31.8;43.6
78793;SHT31;68134;51.984;5.652;2023-09-12T14:55:38;31.7;43.2
78793;SHT31;68134;51.984;5.652;2023-09-12T14:58:07;31.6;43.3
78793;SHT31;68134;51.984;5.652;2023-09-12T15:00:36;31.5;43.4
78793;SHT31;68134;51.984;5.652;2023-09-12T15:03:05;31.5;44.0
78793;SHT31;68134;51.984;5.652;2023-09-12T15:05:34;31.5;43.3
78793;SHT31;68134;51.984;5.652;2023-09-12T15:08:03;31.4;43.2
78793;SHT31;68134;51.984;5.652;2023-09-12T15:10:33;31.4;44.3
78793;SHT31;68134;51.984;5.652;2023-09-12T15:13:02;31.3;44.2
78793;SHT31;68134;51.984;5.652;2023-09-12T15:15:30;31.3;43.7
78793;SHT31;68134;51.984;5.652;2023-09-12T15:17:59;31.2;44.5
78793;SHT31;68134;51.984;5.652;2023-09-12T15:20:29;31.0;44.2
78793;SHT31;68134;51.984;5.652;2023-09-12T15:22:57;31.0;45.7
78793;SHT31;68134;51.984;5.652;2023-09-12T15:25:26;30.9;45.5
78793;SHT31;68134;51.984;5.652;2023-09-12T15:27:55;30.8;45.4
78793;SHT31;68134;51.984;5.652;2023-09-12T15:30:24;30.8;45.2
78793;SHT31;68134;51.984;5.652;2023-09-12T15:32:52;30.7;45.7
78793;SHT31;68134;51.984;5.652;2023-09-12T15:35:23;30.6;46.5
78793;SHT31;68134;51.984;5.652;2023-09-12T15:37:52;30.5;47.5
78793;SHT31;68134;51.984;5.652;2023-09-12T15:40:20;30.5;47.8
78793;SHT31;68134;51.984;5.652;2023-09-12T15:42:49;30.4;48.7
78793;SHT31;68134;51.984;5.652;2023-09-12T15:45:17;30.3;48.7
78793;SHT31;68134;51.984;5.652;2023-09-12T15:47:47;30.3;49.0
78793;SHT31;68134;51.984;5.652;2023-09-12T15:50:15;30.2;48.9
78793;SHT31;68134;51.984;5.652;2023-09-12T15:52:44;30.1;49.3
78793;SHT31;68134;51.984;5.652;2023-09-12T15:55:13;30.1;49.2
78793;SHT31;68134;51.984;5.652;2023-09-12T15:57:41;30.0;49.2
78793;SHT31;68134;51.984;5.652;2023-09-12T16:00:13;30.0;49.1
78793;SHT31;68134;51.984;5.652;2023-09-12T16:02:42;30.0;49.0
78793;SHT31;68134;51.984;5.652;2023-09-12T16:05:11;29.9;49.2
78793;SHT31;68134;51.984;5.652;2023-09-12T16:07:39;29.9;49.0
78793;SHT31;68134;51.984;5.652;2023-09-12T16:10:09;29.8;49.0
78793;SHT31;68134;51.984;5.652;2023-09-12T16:12:41;29.7;49.3
78793;SHT31;68134;51.984;5.652;2023-09-12T16:15:10;29.6;49.0
78793;SHT31;68134;51.984;5.652;2023-09-12T16:17:38;29.5;49.2
78793;SHT31;68134;51.984;5.652;2023-09-12T16:20:09;29.4;49.5
78793;SHT31;68134;51.984;5.652;2023-09-12T16:22:39;29.3;50.0
78793;SHT31;68134;51.984;5.652;2023-09-12T16:25:09;29.2;50.4